createdAt,value
2023-05-09T00:00:59.325Z,1009.37
2023-05-09T00:01:59.273Z,1009.25
2023-05-09T00:02:59.281Z,1009.25
2023-05-09T00:04:00.305Z,1009.32
2023-05-09T00:04:59.203Z,1009.37
2023-05-09T00:06:00.175Z,1009.35
2023-05-09T00:06:59.188Z,1009.39
2023-05-09T00:07:59.166Z,1009.37
2023-05-09T00:08:59.206Z,1009.41
2023-05-09T00:09:59.144Z,1009.41
2023-05-09T00:10:59.129Z,1009.36
2023-05-09T00:11:59.153Z,1009.32
2023-05-09T00:12:59.206Z,1009.40
2023-05-09T00:14:00.233Z,1009.39
2023-05-09T00:14:59.119Z,1009.33
2023-05-09T00:15:59.081Z,1009.32
2023-05-09T00:17:00.067Z,1009.32
2023-05-09T00:17:59.090Z,1009.32
2023-05-09T00:18:59.104Z,1009.29
2023-05-09T00:19:59.024Z,1009.31
2023-05-09T00:20:59.036Z,1009.32
2023-05-09T00:22:00.111Z,1009.28
2023-05-09T00:22:58.998Z,1009.23
2023-05-09T00:23:59.027Z,1009.26
2023-05-09T00:24:59.027Z,1009.21
2023-05-09T00:25:59.962Z,1009.26
2023-05-09T00:26:58.972Z,1009.27
2023-05-09T00:27:58.946Z,1009.24
2023-05-09T00:28:58.961Z,1009.20
2023-05-09T00:29:59.040Z,1009.24
2023-05-09T00:30:58.957Z,1009.21
2023-05-09T00:31:59.942Z,1009.17
2023-05-09T00:32:58.941Z,1009.17
2023-05-09T00:33:59.937Z,1009.18
2023-05-09T00:34:58.896Z,1009.29
2023-05-09T00:35:58.857Z,1009.18
2023-05-09T00:36:58.898Z,1009.23
2023-05-09T00:37:58.866Z,1009.28
2023-05-09T00:38:59.827Z,1009.26
2023-05-09T00:39:58.824Z,1009.28
2023-05-09T00:40:59.784Z,1009.25
2023-05-09T00:41:58.803Z,1009.15
2023-05-09T00:42:58.836Z,1009.19
2023-05-09T00:43:59.772Z,1009.19
2023-05-09T00:44:58.817Z,1009.10
2023-05-09T00:45:58.918Z,1009.14
2023-05-09T00:46:58.738Z,1009.09
2023-05-09T00:47:58.795Z,1009.07
2023-05-09T00:48:58.728Z,1009.07
2023-05-09T00:49:59.730Z,1009.17
2023-05-09T00:50:58.693Z,1009.07
2023-05-09T00:51:59.692Z,1009.11
2023-05-09T00:52:58.703Z,1009.06
2023-05-09T00:53:59.691Z,1009.14
2023-05-09T00:54:58.662Z,1009.04
2023-05-09T00:55:58.651Z,1009.07
2023-05-09T00:56:58.666Z,1009.02
2023-05-09T00:57:58.635Z,1009.00
2023-05-09T00:58:58.620Z,1009.00
2023-05-09T00:59:58.609Z,1009.05
2023-05-09T01:00:59.613Z,1008.99
2023-05-09T01:01:58.723Z,1009.04
2023-05-09T01:02:58.695Z,1009.00
2023-05-09T01:03:59.569Z,1008.99
2023-05-09T01:04:58.566Z,1009.00
2023-05-09T01:05:58.531Z,1009.02
2023-05-09T01:06:58.528Z,1008.99
2023-05-09T01:07:58.559Z,1008.95
2023-05-09T01:08:58.514Z,1008.97
2023-05-09T01:09:59.483Z,1008.96
2023-05-09T01:10:58.467Z,1008.92
2023-05-09T01:11:58.474Z,1008.92
2023-05-09T01:12:58.542Z,1008.97
2023-05-09T01:13:58.444Z,1008.95
2023-05-09T01:14:58.440Z,1008.95
2023-05-09T01:15:58.460Z,1008.93
2023-05-09T01:16:58.427Z,1008.98
2023-05-09T01:17:58.639Z,1008.97
2023-05-09T01:18:58.411Z,1008.96
2023-05-09T01:19:58.399Z,1009.00
2023-05-09T01:20:58.369Z,1008.88
2023-05-09T01:21:58.384Z,1008.93
2023-05-09T01:22:58.345Z,1008.91
2023-05-09T01:23:58.337Z,1008.90
2023-05-09T01:24:58.319Z,1008.93
2023-05-09T01:25:58.330Z,1008.91
2023-05-09T01:26:58.370Z,1008.89
2023-05-09T01:27:58.329Z,1008.87
2023-05-09T01:28:58.375Z,1008.89
2023-05-09T01:29:59.268Z,1008.83
2023-05-09T01:30:58.285Z,1008.87
2023-05-09T01:31:58.266Z,1008.85
2023-05-09T01:32:58.313Z,1008.83
2023-05-09T01:33:59.372Z,1008.78
2023-05-09T01:34:58.238Z,1008.82
2023-05-09T01:35:58.212Z,1008.79
2023-05-09T01:36:58.199Z,1008.76
2023-05-09T01:37:58.201Z,1008.77
2023-05-09T01:38:58.198Z,1008.76
2023-05-09T01:39:58.144Z,1008.80
2023-05-09T01:40:58.149Z,1008.72
2023-05-09T01:41:58.207Z,1008.79
2023-05-09T01:42:58.153Z,1008.76
2023-05-09T01:43:58.156Z,1008.72
2023-05-09T01:44:58.094Z,1008.79
2023-05-09T01:45:58.106Z,1008.79
2023-05-09T01:46:58.170Z,1008.70
2023-05-09T01:47:59.118Z,1008.76
2023-05-09T01:48:58.101Z,1008.80
2023-05-09T01:49:58.174Z,1008.80
2023-05-09T01:50:58.045Z,1008.79
2023-05-09T01:51:58.014Z,1008.80
2023-05-09T01:52:59.040Z,1008.78
2023-05-09T01:53:59.025Z,1008.80
2023-05-09T01:54:57.994Z,1008.79
2023-05-09T01:55:58.026Z,1008.77
2023-05-09T01:56:58.051Z,1008.81
2023-05-09T01:57:57.950Z,1008.75
2023-05-09T01:58:57.987Z,1008.80
2023-05-09T01:59:57.946Z,1008.74
2023-05-09T02:00:57.967Z,1008.73
2023-05-09T02:01:58.940Z,1008.73
2023-05-09T02:02:58.984Z,1008.69
2023-05-09T02:03:57.916Z,1008.63
2023-05-09T02:04:58.117Z,1008.70
2023-05-09T02:05:59.021Z,1008.61
2023-05-09T02:06:57.908Z,1008.63
2023-05-09T02:07:58.848Z,1008.63
2023-05-09T02:08:57.850Z,1008.63
2023-05-09T02:09:57.894Z,1008.62
2023-05-09T02:10:57.841Z,1008.66
2023-05-09T02:11:57.801Z,1008.58
2023-05-09T02:12:57.830Z,1008.59
2023-05-09T02:13:57.819Z,1008.58
2023-05-09T02:14:57.817Z,1008.60
2023-05-09T02:15:57.764Z,1008.61
2023-05-09T02:16:57.789Z,1008.59
2023-05-09T02:17:57.793Z,1008.60
2023-05-09T02:18:57.752Z,1008.60
2023-05-09T02:19:57.728Z,1008.61
2023-05-09T02:20:57.763Z,1008.57
2023-05-09T02:21:58.710Z,1008.53
2023-05-09T02:22:57.689Z,1008.62
2023-05-09T02:23:57.680Z,1008.58
2023-05-09T02:24:57.667Z,1008.59
2023-05-09T02:25:58.691Z,1008.56
2023-05-09T02:26:57.656Z,1008.56
2023-05-09T02:27:58.628Z,1008.63
2023-05-09T02:28:57.622Z,1008.56
2023-05-09T02:29:58.636Z,1008.57
2023-05-09T02:30:57.635Z,1008.56
2023-05-09T02:31:57.611Z,1008.55
2023-05-09T02:32:57.596Z,1008.50
2023-05-09T02:33:57.561Z,1008.53
2023-05-09T02:34:57.564Z,1008.61
2023-05-09T02:35:57.565Z,1008.53
2023-05-09T02:36:57.547Z,1008.52
2023-05-09T02:37:57.721Z,1008.51
2023-05-09T02:38:57.533Z,1008.57
2023-05-09T02:39:58.502Z,1008.56
2023-05-09T02:40:57.532Z,1008.57
2023-05-09T02:41:57.495Z,1008.51
2023-05-09T02:42:57.484Z,1008.53
2023-05-09T02:43:57.506Z,1008.53
2023-05-09T02:44:57.430Z,1008.52
2023-05-09T02:45:57.479Z,1008.53
2023-05-09T02:46:58.454Z,1008.46
2023-05-09T02:47:57.471Z,1008.59
2023-05-09T02:48:58.426Z,1008.52
2023-05-09T02:49:57.415Z,1008.50
2023-05-09T02:50:57.377Z,1008.51
2023-05-09T02:51:57.367Z,1008.50
2023-05-09T02:52:57.354Z,1008.47
2023-05-09T02:53:57.493Z,1008.47
2023-05-09T02:54:57.324Z,1008.50
2023-05-09T02:55:57.337Z,1008.47
2023-05-09T02:56:57.342Z,1008.50
2023-05-09T02:58:05.660Z,1008.50
2023-05-09T02:58:58.311Z,1008.54
2023-05-09T02:59:57.310Z,1008.45
2023-05-09T03:00:57.276Z,1008.51
2023-05-09T03:01:57.355Z,1008.47
2023-05-09T03:02:58.298Z,1008.48
2023-05-09T03:03:58.411Z,1008.48
2023-05-09T03:04:58.238Z,1008.50
2023-05-09T03:05:57.216Z,1008.49
2023-05-09T03:06:57.252Z,1008.54
2023-05-09T03:07:57.245Z,1008.47
2023-05-09T03:08:57.189Z,1008.41
2023-05-09T03:09:57.296Z,1008.40
2023-05-09T03:10:57.186Z,1008.42
2023-05-09T03:11:57.174Z,1008.41
2023-05-09T03:12:57.173Z,1008.39
2023-05-09T03:13:57.209Z,1008.43
2023-05-09T03:14:57.123Z,1008.38
2023-05-09T03:15:57.142Z,1008.35
2023-05-09T03:16:57.102Z,1008.39
2023-05-09T03:17:57.143Z,1008.41
2023-05-09T03:18:57.105Z,1008.38
2023-05-09T03:19:57.115Z,1008.43
2023-05-09T03:20:57.070Z,1008.40
2023-05-09T03:21:58.077Z,1008.37
2023-05-09T03:22:57.040Z,1008.34
2023-05-09T03:23:57.013Z,1008.37
2023-05-09T03:24:58.095Z,1008.37
2023-05-09T03:25:57.115Z,1008.37
2023-05-09T03:26:56.991Z,1008.36
2023-05-09T03:27:56.964Z,1008.37
2023-05-09T03:28:56.980Z,1008.37
2023-05-09T03:29:57.015Z,1008.34
2023-05-09T03:30:56.932Z,1008.35
2023-05-09T03:31:57.947Z,1008.39
2023-05-09T03:32:57.967Z,1008.38
2023-05-09T03:33:57.897Z,1008.36
2023-05-09T03:34:56.896Z,1008.35
2023-05-09T03:35:56.941Z,1008.30
2023-05-09T03:36:57.895Z,1008.30
2023-05-09T03:37:56.889Z,1008.28
2023-05-09T03:38:57.868Z,1008.31
2023-05-09T03:39:56.845Z,1008.32
2023-05-09T03:41:04.645Z,1008.29
2023-05-09T03:41:56.860Z,1008.31
2023-05-09T03:42:56.825Z,1008.31
2023-05-09T03:43:56.791Z,1008.32
2023-05-09T03:44:56.806Z,1008.31
2023-05-09T03:45:56.799Z,1008.29
2023-05-09T03:46:56.837Z,1008.30
2023-05-09T03:47:56.813Z,1008.29
2023-05-09T03:48:56.760Z,1008.35
2023-05-09T03:49:57.782Z,1008.27
2023-05-09T03:50:57.725Z,1008.32
2023-05-09T03:51:56.720Z,1008.32
2023-05-09T03:52:56.698Z,1008.30
2023-05-09T03:53:57.703Z,1008.34
2023-05-09T03:54:56.684Z,1008.36
2023-05-09T03:55:56.687Z,1008.30
2023-05-09T03:56:56.778Z,1008.32
2023-05-09T03:57:56.665Z,1008.31
2023-05-09T03:58:56.623Z,1008.30
2023-05-09T03:59:56.620Z,1008.32
2023-05-09T04:00:57.641Z,1008.26
2023-05-09T04:01:57.615Z,1008.34
2023-05-09T04:02:56.699Z,1008.31
2023-05-09T04:03:56.628Z,1008.30
2023-05-09T04:04:56.581Z,1008.31
2023-05-09T04:05:56.560Z,1008.30
2023-05-09T04:06:57.592Z,1008.30
2023-05-09T04:07:56.570Z,1008.28
2023-05-09T04:08:56.530Z,1008.31
2023-05-09T04:09:56.528Z,1008.31
2023-05-09T04:10:56.497Z,1008.31
2023-05-09T04:11:56.525Z,1008.30
2023-05-09T04:12:57.668Z,1008.31
2023-05-09T04:13:56.474Z,1008.36
2023-05-09T04:14:56.475Z,1008.35
2023-05-09T04:15:56.489Z,1008.33
2023-05-09T04:16:56.503Z,1008.34
2023-05-09T04:17:56.477Z,1008.38
2023-05-09T04:18:56.404Z,1008.35
2023-05-09T04:19:56.413Z,1008.41
2023-05-09T04:20:57.394Z,1008.37
2023-05-09T04:21:57.621Z,1008.36
2023-05-09T04:22:56.448Z,1008.36
2023-05-09T04:23:56.369Z,1008.39
2023-05-09T04:24:56.370Z,1008.39
2023-05-09T04:25:56.366Z,1008.39
2023-05-09T04:26:56.359Z,1008.39
2023-05-09T04:27:56.306Z,1008.33
2023-05-09T04:28:56.426Z,1008.35
2023-05-09T04:29:56.316Z,1008.35
2023-05-09T04:30:56.406Z,1008.26
2023-05-09T04:31:56.493Z,1008.31
2023-05-09T04:32:56.322Z,1008.28
2023-05-09T04:33:56.290Z,1008.30
2023-05-09T04:34:56.311Z,1008.25
2023-05-09T04:35:56.262Z,1008.30
2023-05-09T04:36:56.222Z,1008.18
2023-05-09T04:37:56.208Z,1008.24
2023-05-09T04:38:56.224Z,1008.22
2023-05-09T04:39:56.177Z,1008.20
2023-05-09T04:40:56.177Z,1008.17
2023-05-09T04:41:56.175Z,1008.16
2023-05-09T04:42:56.149Z,1008.09
2023-05-09T04:43:57.141Z,1008.13
2023-05-09T04:44:57.248Z,1008.17
2023-05-09T04:45:56.185Z,1008.11
2023-05-09T04:46:56.113Z,1008.22
2023-05-09T04:47:57.163Z,1008.17
2023-05-09T04:48:56.096Z,1008.14
2023-05-09T04:49:56.113Z,1008.19
2023-05-09T04:50:56.063Z,1008.19
2023-05-09T04:51:56.076Z,1008.14
2023-05-09T04:52:57.047Z,1008.10
2023-05-09T04:53:57.049Z,1008.08
2023-05-09T04:54:56.028Z,1008.12
2023-05-09T04:55:55.997Z,1008.09
2023-05-09T04:57:03.244Z,1008.09
2023-05-09T04:57:56.977Z,1008.11
2023-05-09T04:58:55.963Z,1008.13
2023-05-09T04:59:55.972Z,1008.12
2023-05-09T05:00:56.057Z,1008.14
2023-05-09T05:01:55.996Z,1008.11
2023-05-09T05:02:56.092Z,1008.04
2023-05-09T05:03:55.948Z,1008.07
2023-05-09T05:05:06.323Z,1008.06
2023-05-09T05:05:56.877Z,1008.09
2023-05-09T05:06:56.894Z,1008.10
2023-05-09T05:07:55.863Z,1008.04
2023-05-09T05:08:55.878Z,1008.07
2023-05-09T05:09:55.863Z,1008.10
2023-05-09T05:10:55.834Z,1008.06
2023-05-09T05:12:01.117Z,1008.06
2023-05-09T05:12:56.864Z,1008.02
2023-05-09T05:13:55.812Z,1008.02
2023-05-09T05:14:55.802Z,1007.99
2023-05-09T05:15:55.825Z,1007.99
2023-05-09T05:16:55.905Z,1007.92
2023-05-09T05:17:55.827Z,1007.92
2023-05-09T05:18:56.742Z,1007.93
2023-05-09T05:19:56.740Z,1007.84
2023-05-09T05:20:56.735Z,1007.86
2023-05-09T05:21:55.724Z,1007.82
2023-05-09T05:22:56.733Z,1007.84
2023-05-09T05:23:55.727Z,1007.82
2023-05-09T05:24:55.677Z,1007.77
2023-05-09T05:25:55.679Z,1007.79
2023-05-09T05:26:55.662Z,1007.73
2023-05-09T05:27:56.670Z,1007.70
2023-05-09T05:28:55.681Z,1007.70
2023-05-09T05:29:55.652Z,1007.76
2023-05-09T05:30:55.631Z,1007.76
2023-05-09T05:31:55.725Z,1007.78
2023-05-09T05:32:56.780Z,1007.78
2023-05-09T05:33:55.589Z,1007.77
2023-05-09T05:34:55.588Z,1007.78
2023-05-09T05:35:56.576Z,1007.80
2023-05-09T05:36:55.546Z,1007.80
2023-05-09T05:37:55.537Z,1007.81
2023-05-09T05:38:55.547Z,1007.75
2023-05-09T05:39:55.578Z,1007.71
2023-05-09T05:40:55.537Z,1007.75
2023-05-09T05:41:55.531Z,1007.83
2023-05-09T05:42:55.511Z,1007.76
2023-05-09T05:43:56.488Z,1007.80
2023-05-09T05:44:55.473Z,1007.81
2023-05-09T05:45:55.473Z,1007.80
2023-05-09T05:46:56.471Z,1007.77
2023-05-09T05:47:55.483Z,1007.80
2023-05-09T05:48:55.552Z,1007.77
2023-05-09T05:49:55.412Z,1007.81
2023-05-09T05:50:55.410Z,1007.79
2023-05-09T05:51:55.416Z,1007.79
2023-05-09T05:52:55.378Z,1007.73
2023-05-09T05:53:56.362Z,1007.74
2023-05-09T05:54:55.384Z,1007.78
2023-05-09T05:55:55.426Z,1007.80
2023-05-09T05:56:55.322Z,1007.74
2023-05-09T05:57:56.338Z,1007.74
2023-05-09T05:58:55.327Z,1007.75
2023-05-09T05:59:55.289Z,1007.76
2023-05-09T06:00:55.287Z,1007.75
2023-05-09T06:01:56.285Z,1007.77
2023-05-09T06:02:55.440Z,1007.76
2023-05-09T06:03:55.326Z,1007.74
2023-05-09T06:04:56.131Z,1007.69
2023-05-09T06:05:55.224Z,1007.69
2023-05-09T06:06:55.227Z,1007.65
2023-05-09T06:07:55.224Z,1007.62
2023-05-09T06:08:56.211Z,1007.62
2023-05-09T06:09:55.185Z,1007.68
2023-05-09T06:10:55.189Z,1007.59
2023-05-09T06:11:55.193Z,1007.58
2023-05-09T06:12:55.161Z,1007.52
2023-05-09T06:13:55.170Z,1007.50
2023-05-09T06:14:56.148Z,1007.50
2023-05-09T06:15:57.673Z,1007.58
2023-05-09T06:16:55.152Z,1007.49
2023-05-09T06:17:55.194Z,1007.51
2023-05-09T06:18:56.301Z,1007.47
2023-05-09T06:19:55.075Z,1007.47
2023-05-09T06:20:55.187Z,1007.53
2023-05-09T06:21:55.079Z,1007.46
2023-05-09T06:22:56.044Z,1007.48
2023-05-09T06:24:56.016Z,1007.53
2023-05-09T06:25:55.006Z,1007.47
2023-05-09T06:26:55.000Z,1007.52
2023-05-09T06:27:55.981Z,1007.52
2023-05-09T06:28:55.974Z,1007.49
2023-05-09T06:29:54.967Z,1007.55
2023-05-09T06:30:55.968Z,1007.52
2023-05-09T06:31:55.042Z,1007.48
2023-05-09T06:32:55.242Z,1007.50
2023-05-09T06:33:54.931Z,1007.53
2023-05-09T06:34:54.963Z,1007.49
2023-05-09T06:35:54.887Z,1007.52
2023-05-09T06:36:55.024Z,1007.45
2023-05-09T06:37:54.924Z,1007.46
2023-05-09T06:38:54.888Z,1007.49
2023-05-09T06:39:54.845Z,1007.49
2023-05-09T06:40:54.840Z,1007.51
2023-05-09T06:41:54.859Z,1007.43
2023-05-09T06:42:54.848Z,1007.34
2023-05-09T06:43:54.834Z,1007.38
2023-05-09T06:44:54.832Z,1007.35
2023-05-09T06:45:54.848Z,1007.37
2023-05-09T06:46:54.780Z,1007.32
2023-05-09T06:47:55.883Z,1007.36
2023-05-09T06:48:54.769Z,1007.39
2023-05-09T06:49:54.741Z,1007.33
2023-05-09T06:50:54.744Z,1007.35
2023-05-09T06:51:54.729Z,1007.32
2023-05-09T06:52:54.824Z,1007.30
2023-05-09T06:53:54.733Z,1007.28
2023-05-09T06:54:54.682Z,1007.26
2023-05-09T06:55:55.708Z,1007.31
2023-05-09T06:56:54.689Z,1007.28
2023-05-09T06:57:55.670Z,1007.22
2023-05-09T06:58:54.701Z,1007.24
2023-05-09T06:59:54.696Z,1007.22
2023-05-09T07:00:54.610Z,1007.21
2023-05-09T07:01:54.708Z,1007.19
2023-05-09T07:02:54.640Z,1007.19
2023-05-09T07:03:54.595Z,1007.19
2023-05-09T07:04:55.648Z,1007.14
2023-05-09T07:05:54.594Z,1007.14
2023-05-09T07:06:55.572Z,1007.14
2023-05-09T07:07:54.561Z,1007.11
2023-05-09T07:08:54.684Z,1007.11
2023-05-09T07:10:00.659Z,1007.10
2023-05-09T07:10:55.529Z,1007.06
2023-05-09T07:11:54.550Z,1007.05
2023-05-09T07:12:54.561Z,1007.05
2023-05-09T07:13:55.514Z,1007.01
2023-05-09T07:14:55.492Z,1007.06
2023-05-09T07:15:55.544Z,1007.04
2023-05-09T07:17:00.060Z,1007.05
2023-05-09T07:17:55.500Z,1007.01
2023-05-09T07:18:55.459Z,1006.95
2023-05-09T07:19:54.445Z,1007.00
2023-05-09T07:20:54.408Z,1006.97
2023-05-09T07:21:54.408Z,1006.95
2023-05-09T07:22:54.451Z,1007.03
2023-05-09T07:23:54.403Z,1006.95
2023-05-09T07:24:54.504Z,1006.94
2023-05-09T07:25:54.376Z,1006.94
2023-05-09T07:26:54.372Z,1006.94
2023-05-09T07:27:54.340Z,1006.98
2023-05-09T07:28:54.491Z,1006.91
2023-05-09T07:29:54.333Z,1006.85
2023-05-09T07:30:55.309Z,1006.90
2023-05-09T07:31:54.365Z,1006.90
2023-05-09T07:32:54.400Z,1006.90
2023-05-09T07:33:54.263Z,1006.90
2023-05-09T07:34:54.292Z,1006.88
2023-05-09T07:35:54.279Z,1006.92
2023-05-09T07:36:54.247Z,1006.88
2023-05-09T07:37:54.232Z,1006.91
2023-05-09T07:38:54.215Z,1006.89
2023-05-09T07:39:54.214Z,1006.89
2023-05-09T07:40:54.333Z,1006.82
2023-05-09T07:41:54.230Z,1006.85
2023-05-09T07:42:54.178Z,1006.78
2023-05-09T07:43:54.187Z,1006.76
2023-05-09T07:44:54.152Z,1006.82
2023-05-09T07:45:54.185Z,1006.76
2023-05-09T07:46:54.144Z,1006.78
2023-05-09T07:47:55.214Z,1006.73
2023-05-09T07:48:54.116Z,1006.72
2023-05-09T07:49:54.113Z,1006.70
2023-05-09T07:50:54.090Z,1006.64
2023-05-09T07:51:54.076Z,1006.64
2023-05-09T07:52:54.084Z,1006.58
2023-05-09T07:53:54.047Z,1006.63
2023-05-09T07:54:54.047Z,1006.56
2023-05-09T07:55:54.019Z,1006.55
2023-05-09T07:56:54.131Z,1006.56
2023-05-09T07:57:54.009Z,1006.60
2023-05-09T07:58:55.572Z,1006.57
2023-05-09T07:59:55.001Z,1006.48
2023-05-09T08:00:53.990Z,1006.52
2023-05-09T08:01:54.037Z,1006.49
2023-05-09T08:02:55.060Z,1006.55
2023-05-09T08:03:54.029Z,1006.47
2023-05-09T08:04:53.949Z,1006.46
2023-05-09T08:05:54.929Z,1006.47
2023-05-09T08:06:53.918Z,1006.45
2023-05-09T08:07:53.927Z,1006.41
2023-05-09T08:08:53.880Z,1006.45
2023-05-09T08:09:54.862Z,1006.44
2023-05-09T08:10:53.870Z,1006.41
2023-05-09T08:11:54.885Z,1006.44
2023-05-09T08:12:53.999Z,1006.42
2023-05-09T08:13:53.834Z,1006.38
2023-05-09T08:14:53.834Z,1006.40
2023-05-09T08:15:54.843Z,1006.43
2023-05-09T08:16:54.792Z,1006.40
2023-05-09T08:17:53.858Z,1006.41
2023-05-09T08:18:53.787Z,1006.33
2023-05-09T08:19:54.777Z,1006.36
2023-05-09T08:20:54.769Z,1006.31
2023-05-09T08:21:54.766Z,1006.30
2023-05-09T08:22:54.740Z,1006.32
2023-05-09T08:23:53.735Z,1006.24
2023-05-09T08:24:54.722Z,1006.24
2023-05-09T08:25:53.693Z,1006.19
2023-05-09T08:26:53.689Z,1006.27
2023-05-09T08:27:53.698Z,1006.24
2023-05-09T08:28:54.808Z,1006.14
2023-05-09T08:29:53.670Z,1006.10
2023-05-09T08:30:53.673Z,1006.10
2023-05-09T08:31:53.699Z,1006.13
2023-05-09T08:32:54.006Z,1006.11
2023-05-09T08:33:53.621Z,1006.08
2023-05-09T08:34:53.599Z,1006.04
2023-05-09T08:35:53.615Z,1006.04
2023-05-09T08:36:53.581Z,1006.05
2023-05-09T08:37:54.603Z,1006.02
2023-05-09T08:38:54.556Z,1005.96
2023-05-09T08:39:54.560Z,1005.99
2023-05-09T08:40:53.560Z,1005.97
2023-05-09T08:41:53.554Z,1005.94
2023-05-09T08:42:53.520Z,1005.95
2023-05-09T08:43:53.514Z,1005.95
2023-05-09T08:44:53.623Z,1005.94
2023-05-09T08:45:53.489Z,1005.91
2023-05-09T08:46:53.627Z,1005.95
2023-05-09T08:47:54.549Z,1005.90
2023-05-09T08:48:54.444Z,1006.02
2023-05-09T08:49:53.441Z,1005.87
2023-05-09T08:50:54.426Z,1005.89
2023-05-09T08:51:53.448Z,1005.86
2023-05-09T08:52:53.432Z,1005.89
2023-05-09T08:53:53.421Z,1005.88
2023-05-09T08:54:53.444Z,1005.91
2023-05-09T08:55:53.390Z,1005.90
2023-05-09T08:56:53.384Z,1005.85
2023-05-09T08:57:53.350Z,1005.85
2023-05-09T08:58:53.351Z,1005.84
2023-05-09T08:59:53.357Z,1005.87
2023-05-09T09:00:53.438Z,1005.85
2023-05-09T09:01:53.371Z,1005.84
2023-05-09T09:02:53.622Z,1005.89
2023-05-09T09:03:53.296Z,1005.86
2023-05-09T09:04:53.348Z,1005.83
2023-05-09T09:05:54.385Z,1005.82
2023-05-09T09:06:53.250Z,1005.87
2023-05-09T09:07:53.244Z,1005.79
2023-05-09T09:08:53.245Z,1005.79
2023-05-09T09:09:53.240Z,1005.79
2023-05-09T09:10:54.202Z,1005.83
2023-05-09T09:11:53.233Z,1005.74
2023-05-09T09:12:53.207Z,1005.72
2023-05-09T09:13:53.205Z,1005.75
2023-05-09T09:14:53.237Z,1005.73
2023-05-09T09:15:53.184Z,1005.72
2023-05-09T09:16:53.356Z,1005.72
2023-05-09T09:17:53.142Z,1005.64
2023-05-09T09:18:53.105Z,1005.73
2023-05-09T09:19:54.124Z,1005.69
2023-05-09T09:20:54.102Z,1005.74
2023-05-09T09:21:53.106Z,1005.66
2023-05-09T09:22:54.089Z,1005.69
2023-05-09T09:23:53.104Z,1005.67
2023-05-09T09:24:53.083Z,1005.67
2023-05-09T09:25:53.045Z,1005.58
2023-05-09T09:26:53.026Z,1005.68
2023-05-09T09:27:53.030Z,1005.68
2023-05-09T09:28:53.045Z,1005.68
2023-05-09T09:29:52.988Z,1005.58
2023-05-09T09:30:52.978Z,1005.63
2023-05-09T09:31:53.017Z,1005.59
2023-05-09T09:32:53.115Z,1005.58
2023-05-09T09:33:52.970Z,1005.50
2023-05-09T09:34:52.986Z,1005.47
2023-05-09T09:35:52.966Z,1005.46
2023-05-09T09:36:52.943Z,1005.45
2023-05-09T09:37:52.919Z,1005.44
2023-05-09T09:38:52.917Z,1005.44
2023-05-09T09:39:52.926Z,1005.48
2023-05-09T09:40:52.894Z,1005.39
2023-05-09T09:41:53.860Z,1005.41
2023-05-09T09:42:52.859Z,1005.41
2023-05-09T09:43:52.853Z,1005.33
2023-05-09T09:44:52.838Z,1005.38
2023-05-09T09:45:53.847Z,1005.36
2023-05-09T09:46:52.814Z,1005.35
2023-05-09T09:47:52.841Z,1005.36
2023-05-09T09:48:52.941Z,1005.36
2023-05-09T09:49:52.817Z,1005.34
2023-05-09T09:50:52.840Z,1005.35
2023-05-09T09:51:52.807Z,1005.44
2023-05-09T09:52:52.772Z,1005.34
2023-05-09T09:53:52.758Z,1005.38
2023-05-09T09:54:52.763Z,1005.34
2023-05-09T09:55:52.722Z,1005.36
2023-05-09T09:56:52.727Z,1005.39
2023-05-09T09:57:52.730Z,1005.33
2023-05-09T09:58:52.688Z,1005.34
2023-05-09T09:59:52.671Z,1005.30
2023-05-09T10:00:52.771Z,1005.31
2023-05-09T10:01:52.650Z,1005.25
2023-05-09T10:02:52.787Z,1005.28
2023-05-09T10:03:53.654Z,1005.24
2023-05-09T10:04:53.768Z,1005.27
2023-05-09T10:05:52.621Z,1005.27
2023-05-09T10:06:52.658Z,1005.22
2023-05-09T10:07:52.604Z,1005.12
2023-05-09T10:08:53.566Z,1005.14
2023-05-09T10:09:52.551Z,1005.12
2023-05-09T10:10:52.558Z,1005.14
2023-05-09T10:11:52.553Z,1005.05
2023-05-09T10:12:52.578Z,1005.08
2023-05-09T10:13:53.524Z,1005.22
2023-05-09T10:14:52.533Z,1005.13
2023-05-09T10:15:53.981Z,1005.08
2023-05-09T10:16:52.553Z,1005.08
2023-05-09T10:17:52.517Z,1005.03
2023-05-09T10:18:52.574Z,1004.99
2023-05-09T10:19:52.469Z,1005.01
2023-05-09T10:20:52.550Z,1004.98
2023-05-09T10:21:52.424Z,1005.14
2023-05-09T10:22:52.418Z,1004.88
2023-05-09T10:23:52.436Z,1004.94
2023-05-09T10:24:52.421Z,1004.99
2023-05-09T10:25:52.408Z,1004.95
2023-05-09T10:26:52.410Z,1004.99
2023-05-09T10:27:52.380Z,1004.88
2023-05-09T10:28:52.373Z,1004.82
2023-05-09T10:29:52.365Z,1004.74
2023-05-09T10:30:52.342Z,1004.80
2023-05-09T10:31:53.504Z,1004.81
2023-05-09T10:32:52.348Z,1004.79
2023-05-09T10:33:52.297Z,1004.78
2023-05-09T10:34:53.283Z,1004.78
2023-05-09T10:35:53.333Z,1004.75
2023-05-09T10:36:52.432Z,1004.67
2023-05-09T10:37:52.263Z,1004.72
2023-05-09T10:38:52.234Z,1004.72
2023-05-09T10:39:53.234Z,1004.69
2023-05-09T10:40:52.220Z,1004.65
2023-05-09T10:41:52.211Z,1004.67
2023-05-09T10:42:52.293Z,1004.65
2023-05-09T10:43:53.186Z,1004.57
2023-05-09T10:44:52.172Z,1004.56
2023-05-09T10:45:52.222Z,1004.53
2023-05-09T10:46:53.181Z,1004.52
2023-05-09T10:47:52.210Z,1004.68
2023-05-09T10:48:52.150Z,1004.55
2023-05-09T10:49:52.117Z,1004.56
2023-05-09T10:50:52.104Z,1004.57
2023-05-09T10:51:52.093Z,1004.57
2023-05-09T10:52:52.111Z,1004.53
2023-05-09T10:53:52.111Z,1004.48
2023-05-09T10:54:52.085Z,1004.48
2023-05-09T10:55:52.082Z,1004.39
2023-05-09T10:56:52.084Z,1004.34
2023-05-09T10:57:52.039Z,1004.38
2023-05-09T10:58:52.013Z,1004.40
2023-05-09T10:59:52.007Z,1004.36
2023-05-09T11:00:52.012Z,1004.36
2023-05-09T11:01:51.995Z,1004.29
2023-05-09T11:02:52.043Z,1004.35
2023-05-09T11:03:52.078Z,1004.36
2023-05-09T11:04:52.019Z,1004.36
2023-05-09T11:05:52.941Z,1004.30
2023-05-09T11:06:52.341Z,1004.28
2023-05-09T11:07:51.926Z,1004.25
2023-05-09T11:08:52.023Z,1004.31
2023-05-09T11:09:51.926Z,1004.26
2023-05-09T11:10:52.909Z,1004.27
2023-05-09T11:11:51.889Z,1004.30
2023-05-09T11:12:53.341Z,1004.23
2023-05-09T11:13:52.865Z,1004.20
2023-05-09T11:14:51.839Z,1004.18
2023-05-09T11:15:51.837Z,1004.15
2023-05-09T11:16:51.850Z,1004.19
2023-05-09T11:17:51.902Z,1004.19
2023-05-09T11:18:51.793Z,1004.04
2023-05-09T11:19:51.796Z,1004.04
2023-05-09T11:20:51.791Z,1004.02
2023-05-09T11:21:51.770Z,1004.07
2023-05-09T11:22:51.773Z,1004.02
2023-05-09T11:23:54.483Z,1003.94
2023-05-09T11:24:51.862Z,1003.93
2023-05-09T11:25:51.774Z,1003.92
2023-05-09T11:26:52.710Z,1003.90
2023-05-09T11:27:51.721Z,1003.91
2023-05-09T11:28:52.744Z,1003.87
2023-05-09T11:29:51.681Z,1003.81
2023-05-09T11:30:53.886Z,1003.84
2023-05-09T11:31:51.688Z,1003.81
2023-05-09T11:32:51.745Z,1003.89
2023-05-09T11:33:51.649Z,1003.92
2023-05-09T11:34:51.632Z,1003.85
2023-05-09T11:35:52.628Z,1003.83
2023-05-09T11:36:51.636Z,1003.77
2023-05-09T11:37:51.581Z,1003.74
2023-05-09T11:38:52.589Z,1003.70
2023-05-09T11:39:51.558Z,1003.66
2023-05-09T11:40:52.700Z,1003.66
2023-05-09T11:41:51.602Z,1003.67
2023-05-09T11:42:51.544Z,1003.63
2023-05-09T11:43:51.528Z,1003.68
2023-05-09T11:44:51.539Z,1003.75
2023-05-09T11:45:51.574Z,1003.65
2023-05-09T11:46:52.533Z,1003.56
2023-05-09T11:47:51.517Z,1003.65
2023-05-09T11:48:51.484Z,1003.64
2023-05-09T11:49:51.458Z,1003.55
2023-05-09T11:50:51.456Z,1003.61
2023-05-09T11:51:51.489Z,1003.57
2023-05-09T11:52:51.487Z,1003.55
2023-05-09T11:53:51.422Z,1003.59
2023-05-09T11:54:51.391Z,1003.57
2023-05-09T11:55:52.402Z,1003.47
2023-05-09T11:56:51.538Z,1003.43
2023-05-09T11:57:51.396Z,1003.45
2023-05-09T11:58:51.396Z,1003.53
2023-05-09T11:59:51.358Z,1003.42
2023-05-09T12:00:51.333Z,1003.42
2023-05-09T12:01:52.369Z,1003.40
2023-05-09T12:02:51.487Z,1003.34
2023-05-09T12:03:51.470Z,1003.38
2023-05-09T12:04:52.300Z,1003.34
2023-05-09T12:05:51.278Z,1003.22
2023-05-09T12:06:51.267Z,1003.25